createdAt,value
2023-05-16T00:01:04.914Z,14.40
2023-05-16T00:04:13.777Z,14.30
2023-05-16T00:07:28.925Z,14.31
2023-05-16T00:10:30.863Z,14.23
2023-05-16T00:13:45.906Z,14.27
2023-05-16T00:16:53.965Z,14.36
2023-05-16T00:20:03.065Z,14.35
2023-05-16T00:23:11.923Z,14.37
2023-05-16T00:26:33.937Z,14.39
2023-05-16T00:29:42.585Z,14.37
2023-05-16T00:32:50.978Z,14.36
2023-05-16T00:35:59.435Z,14.32
2023-05-16T00:39:07.923Z,14.32
2023-05-16T00:42:25.946Z,14.32
2023-05-16T00:45:40.895Z,14.31
2023-05-16T00:48:55.963Z,14.27
2023-05-16T00:52:05.908Z,14.23
2023-05-16T00:55:14.580Z,14.26
2023-05-16T00:58:23.916Z,14.24
2023-05-16T01:01:33.726Z,14.22
2023-05-16T01:04:50.905Z,14.19
2023-05-16T01:07:52.768Z,14.13
2023-05-16T01:11:28.920Z,14.12
2023-05-16T01:15:11.958Z,14.11
2023-05-16T01:18:48.967Z,14.12
2023-05-16T01:22:03.919Z,14.08
2023-05-16T01:25:37.922Z,14.09
2023-05-16T01:28:53.936Z,14.08
2023-05-16T01:31:55.804Z,14.09
2023-05-16T01:35:11.937Z,14.07
2023-05-16T01:38:25.454Z,14.06
2023-05-16T01:41:51.921Z,14.02
2023-05-16T01:45:02.895Z,14.00
2023-05-16T01:48:24.927Z,13.96
2023-05-16T01:51:38.923Z,13.92
2023-05-16T01:54:55.916Z,13.89
2023-05-16T01:58:05.973Z,13.89
2023-05-16T02:01:20.994Z,13.75
2023-05-16T02:04:29.511Z,13.79
2023-05-16T02:07:43.932Z,13.80
2023-05-16T02:10:59.932Z,13.80
2023-05-16T02:14:14.916Z,13.82
2023-05-16T02:17:22.953Z,13.80
2023-05-16T02:20:37.921Z,13.82
2023-05-16T02:23:52.907Z,13.83
2023-05-16T02:27:14.938Z,13.80
2023-05-16T02:30:16.775Z,13.74
2023-05-16T02:33:35.948Z,13.71
2023-05-16T02:36:37.836Z,13.69
2023-05-16T02:39:52.918Z,13.66
2023-05-16T02:43:00.925Z,13.64
2023-05-16T02:46:33.521Z,13.60
2023-05-16T02:49:47.943Z,13.59
2023-05-16T02:52:56.514Z,13.55
2023-05-16T02:56:10.928Z,13.53
2023-05-16T02:59:12.768Z,13.51
2023-05-16T03:02:34.982Z,13.56
2023-05-16T03:05:49.918Z,13.59
2023-05-16T03:08:51.932Z,13.59
2023-05-16T03:12:07.259Z,13.46
2023-05-16T03:15:22.913Z,13.56
2023-05-16T03:18:37.958Z,13.51
2023-05-16T03:21:39.820Z,13.48
2023-05-16T03:24:54.925Z,13.46
2023-05-16T03:27:56.877Z,13.40
2023-05-16T03:31:12.011Z,13.41
2023-05-16T03:34:13.970Z,13.39
2023-05-16T03:37:28.947Z,13.39
2023-05-16T03:40:30.818Z,13.36
2023-05-16T03:43:45.927Z,13.40
2023-05-16T03:46:53.923Z,13.36
2023-05-16T03:50:02.582Z,13.44
2023-05-16T03:53:16.917Z,13.40
2023-05-16T03:56:18.792Z,13.47
2023-05-16T03:59:33.932Z,13.47
2023-05-16T04:02:49.061Z,13.42
2023-05-16T04:05:51.115Z,13.37
2023-05-16T04:09:05.967Z,13.40
2023-05-16T04:12:08.042Z,13.47
2023-05-16T04:15:22.950Z,13.50
2023-05-16T04:18:37.992Z,13.49
2023-05-16T04:21:40.101Z,13.41
2023-05-16T04:24:55.937Z,13.45
2023-05-16T04:28:10.951Z,13.49
2023-05-16T04:31:19.824Z,13.44
2023-05-16T04:34:27.960Z,13.45
2023-05-16T04:37:42.936Z,13.45
2023-05-16T04:40:51.572Z,13.56
2023-05-16T04:44:08.955Z,13.60
2023-05-16T04:47:17.587Z,13.63
2023-05-16T04:50:25.945Z,13.66
2023-05-16T04:53:40.936Z,13.69
2023-05-16T04:56:49.516Z,13.68
2023-05-16T05:00:03.983Z,13.72
2023-05-16T05:03:05.933Z,13.76
2023-05-16T05:06:20.951Z,13.78
2023-05-16T05:09:29.540Z,13.80
2023-05-16T05:12:37.958Z,13.83
2023-05-16T05:15:52.958Z,13.84
2023-05-16T05:19:01.625Z,13.86
2023-05-16T05:22:16.944Z,13.87
2023-05-16T05:25:38.947Z,13.84
2023-05-16T05:28:42.161Z,13.85
2023-05-16T05:31:59.979Z,13.84
2023-05-16T05:35:08.607Z,13.84
2023-05-16T05:38:16.956Z,13.85
2023-05-16T05:41:31.941Z,13.83
2023-05-16T05:44:46.944Z,13.85
2023-05-16T05:48:02.020Z,13.85
2023-05-16T05:51:10.513Z,13.91
2023-05-16T05:54:28.967Z,13.90
2023-05-16T05:57:37.497Z,13.89
2023-05-16T06:00:52.024Z,13.89
2023-05-16T06:03:53.833Z,13.79
2023-05-16T06:07:08.963Z,13.87
2023-05-16T06:10:17.750Z,13.84
2023-05-16T06:13:32.978Z,13.86
2023-05-16T06:16:40.980Z,13.81
2023-05-16T06:19:49.503Z,13.83
2023-05-16T06:23:04.934Z,13.71
2023-05-16T06:26:06.817Z,13.84
2023-05-16T06:29:22.952Z,13.83
2023-05-16T06:32:24.941Z,13.84
2023-05-16T06:35:40.001Z,13.77
2023-05-16T06:38:48.474Z,13.78
2023-05-16T06:42:02.985Z,13.75
2023-05-16T06:45:05.363Z,13.75
2023-05-16T06:48:21.159Z,13.72
2023-05-16T06:51:23.161Z,13.70
2023-05-16T06:54:37.999Z,13.63
2023-05-16T06:57:40.024Z,13.74
2023-05-16T07:00:57.022Z,13.77
2023-05-16T07:04:05.797Z,13.77
2023-05-16T07:07:13.991Z,13.83
2023-05-16T07:10:22.660Z,13.85
2023-05-16T07:13:38.028Z,13.90
2023-05-16T07:16:46.097Z,13.95
2023-05-16T07:19:54.501Z,13.95
2023-05-16T07:23:08.976Z,13.97
2023-05-16T07:26:25.789Z,13.98
2023-05-16T07:29:40.992Z,14.03
2023-05-16T07:32:57.205Z,14.04
2023-05-16T07:36:16.274Z,14.01
2023-05-16T07:39:32.227Z,14.01
2023-05-16T07:42:42.335Z,14.02
2023-05-16T07:45:55.265Z,14.01
2023-05-16T07:49:15.448Z,14.03
2023-05-16T07:52:25.616Z,14.01
2023-05-16T07:55:40.008Z,14.13
2023-05-16T07:58:48.988Z,14.14
2023-05-16T08:02:04.021Z,14.19
2023-05-16T08:05:20.022Z,14.21
2023-05-16T08:08:36.223Z,14.24
2023-05-16T08:11:38.312Z,14.32
2023-05-16T08:14:52.979Z,14.37
2023-05-16T08:18:04.987Z,14.44
2023-05-16T08:21:13.572Z,14.49
2023-05-16T08:24:28.000Z,14.53
2023-05-16T08:27:55.005Z,14.55
2023-05-16T08:31:10.015Z,14.57
2023-05-16T08:34:12.012Z,14.59
2023-05-16T08:37:27.016Z,14.59
2023-05-16T08:40:41.983Z,14.55
2023-05-16T08:43:59.007Z,14.56
2023-05-16T08:47:19.164Z,14.55
2023-05-16T08:50:37.987Z,14.62
2023-05-16T08:53:45.601Z,14.62
2023-05-16T08:57:00.014Z,14.64
2023-05-16T09:00:12.192Z,14.53
2023-05-16T09:03:27.052Z,14.60
2023-05-16T09:06:36.613Z,14.61
2023-05-16T09:09:51.139Z,14.65
2023-05-16T09:12:59.601Z,14.55
2023-05-16T09:16:22.347Z,14.61
2023-05-16T09:19:38.589Z,14.70
2023-05-16T09:22:59.058Z,14.62
2023-05-16T09:26:11.619Z,14.63
2023-05-16T09:29:19.674Z,14.63
2023-05-16T09:32:29.113Z,14.61
2023-05-16T09:35:45.637Z,14.72
2023-05-16T09:39:00.991Z,14.71
2023-05-16T09:42:19.039Z,14.74
2023-05-16T09:45:27.233Z,14.80
2023-05-16T09:48:42.012Z,14.80
2023-05-16T09:51:50.787Z,14.80
2023-05-16T09:55:06.012Z,14.77
2023-05-16T09:58:24.013Z,14.77
2023-05-16T10:01:33.028Z,14.82
2023-05-16T10:04:42.350Z,14.82
2023-05-16T10:07:51.015Z,14.78
2023-05-16T10:10:59.819Z,14.77
2023-05-16T10:14:18.020Z,14.82
2023-05-16T10:17:20.276Z,14.81
2023-05-16T10:20:35.021Z,14.76
2023-05-16T10:23:54.001Z,14.76
2023-05-16T10:27:10.602Z,14.74
2023-05-16T10:30:20.003Z,14.68
2023-05-16T10:33:28.953Z,14.75
2023-05-16T10:36:45.011Z,14.83
2023-05-16T10:40:01.021Z,14.87
2023-05-16T10:43:04.267Z,14.85
2023-05-16T10:46:19.245Z,14.85
2023-05-16T10:49:27.915Z,14.87
2023-05-16T10:52:44.815Z,14.89
2023-05-16T10:56:06.094Z,14.89
2023-05-16T10:59:25.656Z,14.92
2023-05-16T11:02:37.042Z,14.90
2023-05-16T11:06:00.047Z,14.94
2023-05-16T11:09:18.806Z,15.00
2023-05-16T11:12:45.026Z,15.02
2023-05-16T11:16:29.407Z,15.03
2023-05-16T11:19:54.013Z,15.06
2023-05-16T11:23:27.023Z,15.08
2023-05-16T11:26:43.014Z,15.19
2023-05-16T11:30:01.074Z,15.27
2023-05-16T11:33:12.077Z,15.29
2023-05-16T11:36:20.577Z,15.28
2023-05-16T11:39:30.069Z,15.26
2023-05-16T11:42:53.025Z,15.27
2023-05-16T11:46:08.033Z,15.29
2023-05-16T11:49:17.941Z,15.38
2023-05-16T11:52:26.015Z,15.43
2023-05-16T11:58:46.460Z,15.42
2023-05-16T12:02:05.048Z,15.34
2023-05-16T12:05:14.383Z,15.60
2023-05-16T12:08:23.013Z,15.61
2023-05-16T12:11:38.018Z,15.61
2023-05-16T12:14:53.020Z,15.61
2023-05-16T12:18:02.100Z,15.57
2023-05-16T12:21:10.706Z,15.66
2023-05-16T12:24:19.062Z,15.66
2023-05-16T12:27:34.299Z,15.61
2023-05-16T12:30:51.032Z,15.61
2023-05-16T12:34:06.085Z,15.62
2023-05-16T12:37:08.780Z,15.68
2023-05-16T12:40:24.025Z,15.71
2023-05-16T12:43:39.050Z,15.77
2023-05-16T12:46:57.152Z,15.85
2023-05-16T12:50:13.253Z,15.84
2023-05-16T12:53:24.026Z,15.82
2023-05-16T12:56:39.026Z,15.83
2023-05-16T12:59:47.028Z,15.84
2023-05-16T13:03:02.161Z,15.82
2023-05-16T13:06:10.660Z,15.88
2023-05-16T13:09:19.040Z,15.97
2023-05-16T13:12:28.084Z,15.99
2023-05-16T13:15:44.131Z,15.88
2023-05-16T13:18:46.069Z,15.92
2023-05-16T13:22:02.123Z,15.95
2023-05-16T13:25:18.010Z,15.93
2023-05-16T13:28:33.053Z,15.96
2023-05-16T13:31:41.679Z,15.97
2023-05-16T13:34:50.053Z,16.05
2023-05-16T13:38:05.039Z,16.11
2023-05-16T13:41:13.590Z,16.15
2023-05-16T13:44:28.034Z,16.23
2023-05-16T13:47:36.050Z,16.33
2023-05-16T13:50:44.885Z,16.31
2023-05-16T13:53:54.008Z,16.33
2023-05-16T13:57:09.049Z,16.38
2023-05-16T14:00:39.833Z,16.38
2023-05-16T14:03:53.143Z,16.46
2023-05-16T14:07:02.019Z,16.52
2023-05-16T14:10:10.798Z,16.47
2023-05-16T14:13:19.046Z,16.52
2023-05-16T14:16:34.217Z,16.51
2023-05-16T14:19:49.028Z,16.44
2023-05-16T14:23:04.057Z,16.42
2023-05-16T14:26:19.020Z,16.44
2023-05-16T14:29:34.072Z,16.44
2023-05-16T14:32:42.107Z,16.45
2023-05-16T14:35:57.097Z,16.41
2023-05-16T14:38:58.977Z,16.44
2023-05-16T14:42:14.023Z,16.43
2023-05-16T14:45:22.039Z,16.46
2023-05-16T14:48:30.621Z,16.37
2023-05-16T14:51:45.050Z,16.25
2023-05-16T14:54:53.603Z,16.16
2023-05-16T14:58:08.072Z,16.09
2023-05-16T15:01:16.808Z,16.08
2023-05-16T15:04:34.093Z,16.05
2023-05-16T15:07:42.052Z,16.04
2023-05-16T15:10:57.072Z,15.97
2023-05-16T15:14:06.724Z,15.98
2023-05-16T15:17:15.055Z,15.92
2023-05-16T15:20:23.650Z,15.90
2023-05-16T15:23:38.076Z,15.92
2023-05-16T15:26:39.980Z,15.93
2023-05-16T15:30:02.095Z,15.92
2023-05-16T15:33:17.097Z,15.92
2023-05-16T15:36:19.110Z,15.88
2023-05-16T15:39:34.086Z,15.89
2023-05-16T15:42:43.051Z,15.84
2023-05-16T15:45:58.233Z,15.83
2023-05-16T15:49:07.035Z,15.84
2023-05-16T15:52:22.942Z,15.80
2023-05-16T15:55:38.074Z,15.77
2023-05-16T15:58:39.907Z,15.78
2023-05-16T16:01:55.105Z,15.77
2023-05-16T16:05:03.719Z,15.69
2023-05-16T16:08:13.080Z,15.72
2023-05-16T16:11:28.322Z,15.74
2023-05-16T16:14:43.065Z,15.72
2023-05-16T16:17:51.060Z,15.77
2023-05-16T16:21:06.064Z,15.75
2023-05-16T16:24:14.940Z,15.74
2023-05-16T16:27:31.056Z,15.73
2023-05-16T16:30:47.072Z,15.76
2023-05-16T16:34:03.088Z,15.76
2023-05-16T16:37:12.516Z,15.76
2023-05-16T16:40:28.075Z,15.78
2023-05-16T16:43:44.095Z,15.77
2023-05-16T16:46:53.385Z,15.77
2023-05-16T16:50:09.115Z,15.77
2023-05-16T16:53:11.798Z,15.77
2023-05-16T16:56:28.094Z,15.74
2023-05-16T16:59:37.721Z,15.77
2023-05-16T17:02:47.129Z,15.76
2023-05-16T17:06:03.304Z,15.74
2023-05-16T17:09:06.423Z,15.76
2023-05-16T17:12:25.072Z,15.77
2023-05-16T17:15:34.463Z,15.77
2023-05-16T17:18:50.093Z,15.74
2023-05-16T17:22:06.056Z,15.73
2023-05-16T17:25:23.053Z,15.72
2023-05-16T17:28:34.442Z,15.67
2023-05-16T17:31:53.129Z,15.65
2023-05-16T17:35:09.170Z,15.66
2023-05-16T17:38:19.382Z,15.67
2023-05-16T17:41:35.540Z,15.69
2023-05-16T17:44:51.072Z,15.69
2023-05-16T17:48:01.503Z,15.71
2023-05-16T17:51:18.379Z,15.75
2023-05-16T17:54:28.356Z,15.73
2023-05-16T17:57:44.087Z,15.72
2023-05-16T18:01:01.253Z,15.67
2023-05-16T18:04:05.867Z,15.74
2023-05-16T18:07:25.056Z,15.74
2023-05-16T18:10:51.643Z,15.72
2023-05-16T18:13:55.665Z,15.73
2023-05-16T18:17:11.187Z,15.72
2023-05-16T18:20:15.388Z,15.71
2023-05-16T18:23:32.063Z,15.70
2023-05-16T18:26:49.413Z,15.69
2023-05-16T18:30:06.282Z,15.63
2023-05-16T18:33:22.062Z,15.69
2023-05-16T18:36:32.333Z,15.68
2023-05-16T18:39:42.109Z,15.67
2023-05-16T18:42:51.605Z,15.65
2023-05-16T18:46:07.091Z,15.63
2023-05-16T18:49:16.985Z,15.59
2023-05-16T18:52:27.312Z,15.55
2023-05-16T18:55:43.085Z,15.53
2023-05-16T18:58:46.387Z,15.47
2023-05-16T19:02:02.500Z,15.44
2023-05-16T19:05:19.582Z,15.42
2023-05-16T19:08:25.588Z,15.40
2023-05-16T19:11:44.081Z,15.40
2023-05-16T19:14:54.156Z,15.39
2023-05-16T19:18:04.556Z,15.39
2023-05-16T19:21:21.095Z,15.33
2023-05-16T19:24:37.059Z,15.35
2023-05-16T19:27:46.538Z,15.34
2023-05-16T19:31:02.537Z,15.34
2023-05-16T19:34:20.717Z,15.36
2023-05-16T19:37:30.087Z,15.36
2023-05-16T19:40:40.118Z,15.35
2023-05-16T19:43:49.069Z,15.34
2023-05-16T19:46:57.583Z,15.33
2023-05-16T19:50:13.086Z,15.32
2023-05-16T19:53:29.102Z,15.28
2023-05-16T19:56:37.713Z,15.28
2023-05-16T19:59:46.082Z,15.27
2023-05-16T20:03:01.290Z,15.26
2023-05-16T20:06:03.328Z,15.22
2023-05-16T20:09:18.147Z,15.17
2023-05-16T20:12:26.617Z,15.14
2023-05-16T20:15:35.060Z,15.13
2023-05-16T20:18:50.154Z,15.13
2023-05-16T20:21:52.196Z,15.17
2023-05-16T20:25:07.093Z,15.15
2023-05-16T20:28:22.318Z,15.18
2023-05-16T20:31:31.108Z,15.20
2023-05-16T20:34:41.627Z,15.18
2023-05-16T20:37:50.085Z,15.17
2023-05-16T20:40:59.659Z,15.19
2023-05-16T20:44:08.074Z,15.14
2023-05-16T20:47:23.091Z,15.14
2023-05-16T20:50:31.599Z,14.98
2023-05-16T20:53:40.097Z,15.10
2023-05-16T20:56:48.635Z,15.07
2023-05-16T21:00:03.085Z,15.09
2023-05-16T21:03:11.704Z,15.10
2023-05-16T21:06:20.117Z,15.10
2023-05-16T21:09:35.085Z,15.11
2023-05-16T21:12:50.117Z,15.10
2023-05-16T21:15:58.645Z,15.08
2023-05-16T21:19:13.157Z,15.03
2023-05-16T21:22:21.619Z,15.04
2023-05-16T21:25:36.122Z,15.02
2023-05-16T21:28:55.560Z,15.01
2023-05-16T21:32:12.665Z,14.97
2023-05-16T21:35:15.725Z,15.01
2023-05-16T21:38:30.088Z,15.01
2023-05-16T21:41:45.135Z,15.00
2023-05-16T21:45:00.142Z,14.98
2023-05-16T21:48:09.202Z,14.95
2023-05-16T21:51:19.237Z,14.95
2023-05-16T21:54:28.094Z,14.93
2023-05-16T21:57:43.228Z,14.92
2023-05-16T22:00:58.097Z,14.92
2023-05-16T22:04:13.264Z,14.89
2023-05-16T22:07:31.088Z,14.87
2023-05-16T22:10:46.094Z,14.89
2023-05-16T22:13:47.972Z,14.86
2023-05-16T22:17:03.138Z,14.87
2023-05-16T22:20:11.933Z,14.86
2023-05-16T22:23:20.111Z,14.79
2023-05-16T22:26:35.398Z,14.83
2023-05-16T22:29:50.110Z,14.85
2023-05-16T22:33:05.149Z,14.85
2023-05-16T22:36:13.733Z,14.86
2023-05-16T22:39:22.128Z,14.85
2023-05-16T22:42:30.676Z,14.85
2023-05-16T22:45:39.152Z,14.85
2023-05-16T22:48:54.167Z,14.75
2023-05-16T22:51:56.189Z,14.80
2023-05-16T22:55:11.112Z,14.78
2023-05-16T22:58:12.920Z,14.78
2023-05-16T23:01:28.119Z,14.76
2023-05-16T23:04:43.198Z,14.75
2023-05-16T23:07:45.252Z,14.73
2023-05-16T23:11:00.120Z,14.74
2023-05-16T23:14:08.633Z,14.76
2023-05-16T23:17:23.110Z,14.75
2023-05-16T23:20:25.044Z,14.74
2023-05-16T23:23:40.215Z,14.73
2023-05-16T23:26:42.378Z,14.72
2023-05-16T23:30:04.111Z,14.73
2023-05-16T23:33:13.193Z,14.75
2023-05-16T23:36:21.763Z,14.76
2023-05-16T23:39:36.161Z,14.74
2023-05-16T23:42:44.677Z,14.77
2023-05-16T23:45:53.086Z,14.76
2023-05-16T23:49:01.801Z,14.73
2023-05-16T23:52:17.083Z,14.75
2023-05-16T23:55:19.035Z,14.73
2023-05-16T23:58:34.107Z,14.74
